Time;durP1;ratioP1;P1;durP2;ratioP2;P2;SDS_P1;SDS_P2;PMS_P1;PMS_P2;Temp;Humidity;BMP_temperature;BMP_pressure;BME280_temperature;BME280_humidity;BME280_pressure;Samples;Min_cycle;Max_cycle;Signal;HPM_P1;HPM_P2
2021/11/22 00:00:03;;;;;;;74.80;14.50;;;;;;;;;;5131880;27;20230;-66
2021/11/22 00:02:30;;;;;;;81.15;14.35;;;;;;;;;;5131484;27;20227;-66
2021/11/22 00:04:57;;;;;;;75.20;13.35;;;;;;;;;;5131820;27;20210;-66
2021/11/22 00:07:25;;;;;;;79.03;15.10;;;;;;;;;;5132229;27;20207;-66
2021/11/22 00:09:53;;;;;;;78.65;13.45;;;;;;;;;;5132374;27;20217;-66
2021/11/22 00:12:20;;;;;;;80.65;14.68;;;;;;;;;;5131909;27;20219;-65
2021/11/22 00:14:47;;;;;;;80.28;14.07;;;;;;;;;;5131681;27;20697;-66
2021/11/22 00:17:14;;;;;;;77.05;14.18;;;;;;;;;;5131518;27;20221;-65
2021/11/22 00:19:41;;;;;;;73.47;12.90;;;;;;;;;;5131873;27;20580;-65
2021/11/22 00:22:09;;;;;;;76.50;14.25;;;;;;;;;;5131192;27;20226;-65
2021/11/22 00:24:37;;;;;;;76.07;14.18;;;;;;;;;;5131534;27;20203;-65
2021/11/22 00:27:04;;;;;;;82.35;13.32;;;;;;;;;;5132032;27;20226;-66
2021/11/22 00:29:31;;;;;;;74.82;13.05;;;;;;;;;;5132121;27;20597;-66
2021/11/22 00:32:01;;;;;;;78.30;13.63;;;;;;;;;;5132170;27;20220;-66
2021/11/22 00:34:28;;;;;;;78.97;13.43;;;;;;;;;;5132050;27;20218;-66
2021/11/22 00:36:56;;;;;;;76.20;12.98;;;;;;;;;;5131824;27;20239;-65
2021/11/22 00:39:23;;;;;;;80.15;15.65;;;;;;;;;;5132230;27;20202;-66
2021/11/22 00:41:52;;;;;;;80.35;15.23;;;;;;;;;;5132268;27;20242;-65
2021/11/22 00:44:19;;;;;;;77.10;14.48;;;;;;;;;;5131907;27;20318;-66
2021/11/22 00:46:46;;;;;;;74.55;13.07;;;;;;;;;;5132909;27;20199;-65
2021/11/22 00:49:13;;;;;;;76.18;14.50;;;;;;;;;;5136158;27;20207;-66
2021/11/22 00:51:40;;;;;;;84.97;15.75;;;;;;;;;;5135840;27;20730;-65
2021/11/22 00:54:07;;;;;;;72.40;13.68;;;;;;;;;;5135959;27;20201;-66
2021/11/22 00:56:36;;;;;;;78.18;14.07;;;;;;;;;;5135506;27;20652;-65
2021/11/22 00:59:04;;;;;;;84.70;20.15;;;;;;;;;;5135952;27;20207;-66
2021/11/22 01:01:31;;;;;;;84.75;18.77;;;;;;;;;;5135797;27;20237;-66
2021/11/22 01:03:59;;;;;;;83.88;17.98;;;;;;;;;;5135778;27;20218;-65
2021/11/22 01:06:26;;;;;;;77.80;15.98;;;;;;;;;;5135190;27;20221;-66
2021/11/22 01:08:53;;;;;;;79.80;15.68;;;;;;;;;;5135657;27;20228;-66
2021/11/22 01:11:20;;;;;;;82.68;14.95;;;;;;;;;;5135939;27;20224;-66
2021/11/22 01:13:47;;;;;;;77.80;14.20;;;;;;;;;;5135935;27;20274;-66
2021/11/22 01:16:16;;;;;;;75.90;13.68;;;;;;;;;;5135380;27;20577;-66
2021/11/22 01:18:43;;;;;;;79.05;13.27;;;;;;;;;;5135607;27;20203;-65
2021/11/22 01:21:10;;;;;;;79.50;13.88;;;;;;;;;;5135436;27;20609;-66
2021/11/22 01:23:37;;;;;;;77.57;13.52;;;;;;;;;;5135281;27;20227;-65
2021/11/22 01:26:04;;;;;;;81.00;14.20;;;;;;;;;;5134837;27;20199;-66
2021/11/22 01:28:31;;;;;;;73.78;12.25;;;;;;;;;;5135360;27;20578;-65
2021/11/22 01:30:58;;;;;;;77.30;14.00;;;;;;;;;;5135420;27;20214;-66
2021/11/22 01:33:27;;;;;;;76.47;14.00;;;;;;;;;;5135272;27;20199;-65
2021/11/22 01:35:54;;;;;;;76.65;13.27;;;;;;;;;;5134856;27;20211;-66
2021/11/22 01:38:23;;;;;;;79.65;14.93;;;;;;;;;;5134963;27;20199;-66
2021/11/22 01:40:50;;;;;;;74.95;13.20;;;;;;;;;;5135095;27;20206;-65
2021/11/22 01:43:18;;;;;;;77.53;13.93;;;;;;;;;;5135019;27;20223;-66
2021/11/22 01:45:45;;;;;;;81.93;13.80;;;;;;;;;;5134777;27;20230;-66
2021/11/22 01:48:13;;;;;;;77.22;13.95;;;;;;;;;;5134859;27;20678;-66
2021/11/22 01:50:41;;;;;;;83.00;14.02;;;;;;;;;;5134711;27;20214;-65
2021/11/22 01:53:09;;;;;;;78.95;13.65;;;;;;;;;;5134747;27;20195;-66
2021/11/22 01:55:36;;;;;;;76.95;12.90;;;;;;;;;;5134382;27;20207;-65
2021/11/22 01:58:03;;;;;;;81.97;15.50;;;;;;;;;;5133971;27;20199;-66
2021/11/22 02:00:32;;;;;;;75.32;12.80;;;;;;;;;;5134483;27;20675;-66
2021/11/22 02:03:00;;;;;;;86.93;15.93;;;;;;;;;;5134439;27;20222;-66
2021/11/22 02:05:27;;;;;;;75.43;13.40;;;;;;;;;;5134100;27;20222;-65
2021/11/22 02:07:56;;;;;;;77.13;12.77;;;;;;;;;;5134637;27;20207;-65
2021/11/22 02:10:24;;;;;;;72.03;12.75;;;;;;;;;;5134299;27;20668;-66
2021/11/22 02:12:51;;;;;;;76.95;14.05;;;;;;;;;;5134538;27;20227;-65
2021/11/22 02:15:18;;;;;;;75.68;12.80;;;;;;;;;;5134263;27;20211;-66
2021/11/22 02:17:48;;;;;;;77.47;13.38;;;;;;;;;;5134048;27;20223;-66
2021/11/22 02:20:17;;;;;;;77.13;13.52;;;;;;;;;;5134093;27;20604;-66
2021/11/22 02:22:45;;;;;;;77.43;14.48;;;;;;;;;;5134012;27;20230;-66
2021/11/22 02:25:13;;;;;;;76.32;14.02;;;;;;;;;;5133898;27;20703;-66
2021/11/22 02:27:40;;;;;;;74.47;13.48;;;;;;;;;;5133879;27;20229;-66
2021/11/22 02:30:08;;;;;;;78.57;12.65;;;;;;;;;;5134064;27;20214;-65
2021/11/22 02:32:37;;;;;;;74.43;13.10;;;;;;;;;;5134004;27;20266;-65
2021/11/22 02:35:04;;;;;;;74.20;13.65;;;;;;;;;;5133745;27;20203;-66
2021/11/22 02:37:33;;;;;;;80.90;13.30;;;;;;;;;;5133677;27;20224;-65
2021/11/22 02:40:00;;;;;;;76.65;13.18;;;;;;;;;;5134016;27;20590;-66
2021/11/22 02:42:28;;;;;;;79.10;14.18;;;;;;;;;;5133763;27;20228;-64
2021/11/22 02:44:56;;;;;;;76.85;13.60;;;;;;;;;;5133488;27;20223;-66
2021/11/22 02:47:23;;;;;;;79.80;13.68;;;;;;;;;;5133379;27;20213;-66
2021/11/22 02:49:50;;;;;;;78.32;14.75;;;;;;;;;;5133860;27;20221;-65
2021/11/22 02:52:18;;;;;;;77.88;12.27;;;;;;;;;;5132275;27;20293;-66
2021/11/22 02:54:46;;;;;;;80.07;13.00;;;;;;;;;;5133435;27;20679;-66
2021/11/22 02:57:15;;;;;;;78.45;14.00;;;;;;;;;;5133585;27;20213;-65
2021/11/22 02:59:42;;;;;;;76.57;14.30;;;;;;;;;;5133705;27;20659;-66
2021/11/22 03:02:09;;;;;;;79.25;13.00;;;;;;;;;;5133598;27;20220;-65
2021/11/22 03:04:37;;;;;;;77.03;14.30;;;;;;;;;;5133460;27;20233;-67
2021/11/22 03:07:04;;;;;;;82.43;13.50;;;;;;;;;;5132861;27;20221;-66
2021/11/22 03:09:32;;;;;;;74.70;13.23;;;;;;;;;;5132826;27;20203;-66
2021/11/22 03:12:01;;;;;;;77.25;13.32;;;;;;;;;;5133364;27;20642;-66
2021/11/22 03:14:28;;;;;;;74.72;12.93;;;;;;;;;;5133292;27;20195;-65
2021/11/22 03:16:56;;;;;;;76.30;14.48;;;;;;;;;;5132937;27;20207;-66
2021/11/22 03:19:23;;;;;;;77.35;15.07;;;;;;;;;;5133193;27;20251;-66
2021/11/22 03:21:51;;;;;;;76.55;13.77;;;;;;;;;;5132948;27;20226;-65
2021/11/22 03:24:18;;;;;;;76.47;14.43;;;;;;;;;;5133104;27;20227;-67
2021/11/22 03:26:45;;;;;;;79.13;14.13;;;;;;;;;;5132591;27;20203;-66
2021/11/22 03:29:14;;;;;;;81.45;12.93;;;;;;;;;;5133163;27;20302;-66
2021/11/22 03:31:42;;;;;;;81.03;12.65;;;;;;;;;;5132875;27;20734;-66
2021/11/22 03:34:11;;;;;;;77.18;15.52;;;;;;;;;;5132784;27;20199;-65
2021/11/22 03:36:38;;;;;;;76.03;13.50;;;;;;;;;;5132501;27;20212;-67
2021/11/22 03:39:09;;;;;;;78.40;13.52;;;;;;;;;;5133029;27;20202;-66
2021/11/22 03:41:36;;;;;;;77.22;13.80;;;;;;;;;;5132762;27;20219;-66
2021/11/22 03:44:11;;;;;;;80.70;14.23;;;;;;;;;;5132770;27;20729;-66
2021/11/22 03:46:40;;;;;;;80.18;14.25;;;;;;;;;;5132399;27;20623;-66
2021/11/22 03:49:07;;;;;;;80.30;14.45;;;;;;;;;;5133152;27;20199;-66
2021/11/22 03:51:34;;;;;;;79.60;13.65;;;;;;;;;;5132976;27;20237;-67
2021/11/22 03:54:01;;;;;;;76.45;12.48;;;;;;;;;;5132757;27;20287;-67
2021/11/22 03:56:28;;;;;;;85.53;15.85;;;;;;;;;;5132366;27;20213;-66
2021/11/22 03:58:56;;;;;;;80.53;13.77;;;;;;;;;;5132702;27;20199;-66
2021/11/22 04:01:23;;;;;;;76.10;13.68;;;;;;;;;;5132317;27;20246;-66
2021/11/22 04:03:51;;;;;;;78.63;15.30;;;;;;;;;;5132406;27;20708;-66
2021/11/22 04:06:18;;;;;;;78.18;14.95;;;;;;;;;;5132074;27;20211;-66
2021/11/22 04:08:46;;;;;;;83.28;14.75;;;;;;;;;;5132710;27;20209;-66
2021/11/22 04:11:14;;;;;;;79.22;15.38;;;;;;;;;;5132588;27;20249;-66
2021/11/22 04:13:41;;;;;;;77.53;14.85;;;;;;;;;;5132373;27;20209;-66
2021/11/22 04:16:08;;;;;;;77.82;15.25;;;;;;;;;;5131924;27;20210;-66
2021/11/22 04:18:35;;;;;;;78.13;14.32;;;;;;;;;;5132575;27;20204;-66
2021/11/22 04:21:03;;;;;;;82.82;14.52;;;;;;;;;;5132213;27;20225;-66
2021/11/22 04:23:31;;;;;;;78.75;15.30;;;;;;;;;;5136453;27;20202;-66
2021/11/22 04:25:58;;;;;;;81.60;14.73;;;;;;;;;;5136099;27;20199;-66
2021/11/22 04:28:25;;;;;;;78.47;14.90;;;;;;;;;;5136293;27;20219;-66
2021/11/22 04:30:53;;;;;;;74.32;13.82;;;;;;;;;;5136190;27;20202;-65
2021/11/22 04:33:20;;;;;;;77.70;15.02;;;;;;;;;;5136282;27;20209;-66
2021/11/22 04:35:47;;;;;;;81.72;15.23;;;;;;;;;;5136268;27;20200;-66
2021/11/22 04:38:15;;;;;;;81.22;14.98;;;;;;;;;;5136324;27;20467;-66
2021/11/22 04:40:42;;;;;;;82.97;15.07;;;;;;;;;;5136563;27;20207;-65
2021/11/22 04:43:10;;;;;;;78.90;15.05;;;;;;;;;;5136188;27;20221;-66
2021/11/22 04:45:37;;;;;;;77.00;13.82;;;;;;;;;;5135888;27;20222;-66
2021/11/22 04:48:05;;;;;;;77.93;15.15;;;;;;;;;;5136162;27;20289;-67
2021/11/22 04:50:32;;;;;;;82.30;15.65;;;;;;;;;;5136306;27;20233;-66
2021/11/22 04:53:01;;;;;;;80.18;15.15;;;;;;;;;;5135844;27;20235;-66
2021/11/22 04:55:29;;;;;;;79.30;16.27;;;;;;;;;;5135527;27;20659;-66
2021/11/22 04:57:57;;;;;;;76.43;15.05;;;;;;;;;;5136111;27;20206;-66
2021/11/22 05:00:24;;;;;;;79.30;14.27;;;;;;;;;;5135877;27;20692;-66
2021/11/22 05:02:51;;;;;;;77.70;14.85;;;;;;;;;;5135982;27;20228;-66
2021/11/22 05:05:19;;;;;;;77.50;14.23;;;;;;;;;;5135468;27;20224;-66
2021/11/22 05:07:46;;;;;;;80.18;16.38;;;;;;;;;;5135361;27;20203;-66
2021/11/22 05:10:14;;;;;;;79.30;14.35;;;;;;;;;;5135761;27;20221;-65
2021/11/22 05:12:42;;;;;;;83.10;15.98;;;;;;;;;;5135925;27;20224;-66
2021/11/22 05:15:09;;;;;;;82.10;15.60;;;;;;;;;;5135617;27;20195;-66
2021/11/22 05:17:40;;;;;;;84.80;17.08;;;;;;;;;;5135324;27;20210;-66
2021/11/22 05:20:08;;;;;;;75.20;13.02;;;;;;;;;;5135537;27;20369;-66
2021/11/22 05:22:35;;;;;;;77.07;13.20;;;;;;;;;;5135379;27;20233;-66
2021/11/22 05:25:03;;;;;;;78.28;14.25;;;;;;;;;;5135604;27;20223;-66
2021/11/22 05:27:31;;;;;;;79.28;14.93;;;;;;;;;;5135210;27;20214;-66
2021/11/22 05:30:00;;;;;;;83.00;16.27;;;;;;;;;;5135368;27;20664;-66
2021/11/22 05:32:27;;;;;;;76.53;14.70;;;;;;;;;;5134902;27;20277;-66
2021/11/22 05:34:55;;;;;;;76.78;15.10;;;;;;;;;;5135053;27;20202;-66
2021/11/22 05:37:22;;;;;;;79.82;14.75;;;;;;;;;;5134947;27;20207;-65
2021/11/22 05:39:50;;;;;;;80.38;15.63;;;;;;;;;;5135078;27;20207;-66
2021/11/22 05:42:17;;;;;;;78.05;14.75;;;;;;;;;;5135093;27;20243;-66
2021/11/22 05:44:45;;;;;;;82.72;16.10;;;;;;;;;;5134904;27;20588;-66
2021/11/22 05:47:14;;;;;;;79.38;15.07;;;;;;;;;;5134768;27;20210;-66
2021/11/22 05:49:41;;;;;;;78.05;14.48;;;;;;;;;;5134834;27;20203;-66
2021/11/22 05:52:10;;;;;;;80.28;16.92;;;;;;;;;;5134978;27;20225;-66
2021/11/22 05:54:45;;;;;;;79.85;14.82;;;;;;;;;;5135014;27;20290;-66
2021/11/22 05:57:12;;;;;;;79.22;15.23;;;;;;;;;;5134622;27;20561;-66
2021/11/22 05:59:39;;;;;;;81.15;14.40;;;;;;;;;;5134833;27;20214;-66
2021/11/22 06:02:06;;;;;;;78.07;15.60;;;;;;;;;;5134585;27;20311;-67
2021/11/22 06:04:35;;;;;;;79.25;15.82;;;;;;;;;;5134653;27;20227;-66
2021/11/22 06:07:02;;;;;;;80.82;15.95;;;;;;;;;;5134174;27;20223;-66
2021/11/22 06:09:29;;;;;;;76.10;14.43;;;;;;;;;;5134532;27;20667;-66
2021/11/22 06:11:57;;;;;;;82.07;14.70;;;;;;;;;;5134404;27;20223;-66
2021/11/22 06:14:24;;;;;;;79.22;14.40;;;;;;;;;;5134434;27;20214;-66
2021/11/22 06:16:51;;;;;;;78.95;15.45;;;;;;;;;;5134206;27;20203;-67
2021/11/22 06:19:18;;;;;;;78.97;15.38;;;;;;;;;;5134316;27;20206;-66
2021/11/22 06:21:46;;;;;;;80.05;14.23;;;;;;;;;;5134521;27;20225;-66
2021/11/22 06:24:13;;;;;;;77.85;14.27;;;;;;;;;;5134092;27;20204;-66
2021/11/22 06:26:41;;;;;;;75.57;13.60;;;;;;;;;;5133905;27;20203;-66
2021/11/22 06:29:09;;;;;;;74.07;13.27;;;;;;;;;;5134046;27;20206;-65
2021/11/22 06:31:36;;;;;;;77.18;14.30;;;;;;;;;;5134099;27;20778;-67
2021/11/22 06:34:03;;;;;;;77.03;12.98;;;;;;;;;;5134427;27;20210;-67
2021/11/22 06:36:30;;;;;;;79.50;13.93;;;;;;;;;;5133712;27;20209;-66
2021/11/22 06:38:59;;;;;;;73.75;13.40;;;;;;;;;;5134045;27;20207;-65
2021/11/22 06:41:26;;;;;;;75.63;14.00;;;;;;;;;;5133871;27;20227;-66
2021/11/22 06:43:53;;;;;;;77.72;14.63;;;;;;;;;;5133072;27;20214;-66
2021/11/22 06:46:20;;;;;;;77.82;13.00;;;;;;;;;;5132346;27;20720;-66
2021/11/22 06:48:47;;;;;;;77.97;13.63;;;;;;;;;;5133769;27;20199;-67
2021/11/22 06:51:14;;;;;;;74.95;12.90;;;;;;;;;;5133626;27;20223;-66
2021/11/22 06:53:41;;;;;;;78.30;13.05;;;;;;;;;;5133700;27;20203;-67
2021/11/22 06:56:10;;;;;;;74.70;12.05;;;;;;;;;;5133229;27;20630;-66
2021/11/22 06:58:37;;;;;;;74.97;13.38;;;;;;;;;;5133401;27;20207;-67
2021/11/22 07:01:04;;;;;;;77.80;13.00;;;;;;;;;;5133664;27;20579;-66
2021/11/22 07:03:31;;;;;;;73.95;12.80;;;;;;;;;;5133532;27;20203;-66
2021/11/22 07:05:59;;;;;;;75.15;12.10;;;;;;;;;;5132849;27;20238;-65
2021/11/22 07:08:27;;;;;;;72.13;12.43;;;;;;;;;;5133316;27;20207;-65
2021/11/22 07:10:54;;;;;;;79.72;14.18;;;;;;;;;;5133213;27;20211;-66
2021/11/22 07:13:25;;;;;;;76.82;12.23;;;;;;;;;;5133427;27;20204;-66
2021/11/22 07:15:52;;;;;;;70.63;10.90;;;;;;;;;;5133139;27;20203;-66
2021/11/22 07:18:19;;;;;;;73.93;11.85;;;;;;;;;;5133229;27;20210;-66
2021/11/22 07:20:47;;;;;;;71.85;11.68;;;;;;;;;;5133595;27;20578;-66
2021/11/22 07:23:15;;;;;;;76.40;12.35;;;;;;;;;;5133260;27;20686;-66
2021/11/22 07:25:42;;;;;;;70.75;11.57;;;;;;;;;;5132896;27;20616;-66
2021/11/22 07:28:09;;;;;;;73.25;11.85;;;;;;;;;;5132928;27;20206;-65
2021/11/22 07:30:38;;;;;;;71.97;11.57;;;;;;;;;;5133086;27;20227;-67
2021/11/22 07:33:05;;;;;;;71.63;11.35;;;;;;;;;;5133045;27;20226;-66
2021/11/22 07:35:32;;;;;;;70.20;10.15;;;;;;;;;;5132513;27;20201;-67
2021/11/22 07:37:59;;;;;;;72.38;10.43;;;;;;;;;;5132812;27;20303;-64
2021/11/22 07:40:27;;;;;;;70.22;9.73;;;;;;;;;;5133174;27;20203;-65
2021/11/22 07:42:55;;;;;;;71.28;10.20;;;;;;;;;;5132730;27;20727;-65
2021/11/22 07:45:22;;;;;;;68.10;8.90;;;;;;;;;;5132556;27;20223;-65
2021/11/22 07:47:51;;;;;;;68.22;9.93;;;;;;;;;;5132895;27;20202;-65
2021/11/22 07:50:18;;;;;;;69.07;9.63;;;;;;;;;;5132627;27;20203;-65
2021/11/22 07:52:45;;;;;;;69.78;9.75;;;;;;;;;;5132554;27;20659;-65
2021/11/22 07:55:13;;;;;;;70.18;9.48;;;;;;;;;;5132624;27;20195;-65
2021/11/22 07:57:40;;;;;;;67.70;9.15;;;;;;;;;;5132522;27;20199;-64
2021/11/22 08:00:11;;;;;;;68.85;9.77;;;;;;;;;;5132656;27;20605;-66
2021/11/22 08:02:39;;;;;;;70.97;10.43;;;;;;;;;;5132426;27;20227;-65
2021/11/22 08:05:08;;;;;;;69.72;9.95;;;;;;;;;;5132105;27;20223;-65
2021/11/22 08:07:37;;;;;;;70.78;9.77;;;;;;;;;;5132454;27;20593;-65
2021/11/22 08:10:15;;;;;;;67.70;9.30;;;;;;;;;;5132741;27;20592;-65
2021/11/22 08:12:42;;;;;;;68.25;9.45;;;;;;;;;;5132533;27;20702;-66
2021/11/22 08:15:11;;;;;;;64.57;8.50;;;;;;;;;;5132346;27;20195;-65
2021/11/22 08:17:40;;;;;;;67.82;9.25;;;;;;;;;;5132287;27;20207;-64
2021/11/22 08:20:09;;;;;;;69.00;10.02;;;;;;;;;;5132511;27;20291;-66
2021/11/22 08:22:36;;;;;;;67.78;10.35;;;;;;;;;;5132446;27;20429;-66
2021/11/22 08:25:04;;;;;;;66.80;9.20;;;;;;;;;;5132358;27;20597;-66
2021/11/22 08:27:32;;;;;;;67.80;9.45;;;;;;;;;;5132088;27;20204;-66
2021/11/22 08:30:01;;;;;;;68.18;9.27;;;;;;;;;;5132213;27;20211;-65
2021/11/22 08:32:28;;;;;;;68.47;10.75;;;;;;;;;;5132696;27;20219;-66
2021/11/22 08:34:55;;;;;;;71.70;9.35;;;;;;;;;;5132343;27;20573;-66
2021/11/22 08:37:24;;;;;;;66.00;8.77;;;;;;;;;;5131936;27;20742;-65
2021/11/22 08:39:51;;;;;;;66.88;9.23;;;;;;;;;;5132243;27;20578;-65
2021/11/22 08:42:19;;;;;;;67.45;10.05;;;;;;;;;;5132156;27;20267;-66
2021/11/22 08:44:46;;;;;;;67.47;10.32;;;;;;;;;;5131968;27;20203;-65
2021/11/22 08:47:13;;;;;;;68.45;8.75;;;;;;;;;;5132095;27;20203;-64
2021/11/22 08:49:42;;;;;;;69.53;9.77;;;;;;;;;;5132246;27;20207;-65
2021/11/22 08:52:09;;;;;;;72.40;9.68;;;;;;;;;;5132551;27;20255;-66
2021/11/22 08:54:38;;;;;;;68.90;10.88;;;;;;;;;;5132025;27;20667;-66
2021/11/22 08:57:08;;;;;;;77.10;11.98;;;;;;;;;;5131972;27;20208;-66
2021/11/22 08:59:35;;;;;;;68.88;11.45;;;;;;;;;;5132235;27;20583;-66
2021/11/22 09:02:02;;;;;;;74.40;12.23;;;;;;;;;;5132011;27;20603;-66
2021/11/22 09:04:29;;;;;;;73.18;13.13;;;;;;;;;;5132109;27;20441;-65
2021/11/22 09:06:57;;;;;;;66.72;10.30;;;;;;;;;;5131910;27;20226;-66
2021/11/22 09:09:24;;;;;;;67.57;10.60;;;;;;;;;;5135631;27;20210;-64
2021/11/22 09:11:52;;;;;;;68.87;10.00;;;;;;;;;;5135468;27;20472;-65
2021/11/22 09:14:19;;;;;;;67.28;9.40;;;;;;;;;;5135792;27;20451;-66
2021/11/22 09:16:47;;;;;;;69.15;9.23;;;;;;;;;;5135482;27;20329;-66
2021/11/22 09:19:14;;;;;;;68.20;8.90;;;;;;;;;;5135807;27;20209;-66
2021/11/22 09:21:41;;;;;;;65.07;9.20;;;;;;;;;;5135396;27;20471;-66
2021/11/22 09:24:09;;;;;;;72.63;9.80;;;;;;;;;;5135337;27;20457;-65
2021/11/22 09:26:36;;;;;;;68.73;9.83;;;;;;;;;;5135090;27;20851;-65
2021/11/22 09:29:06;;;;;;;68.37;9.83;;;;;;;;;;5135477;27;20447;-65
2021/11/22 09:31:33;;;;;;;66.83;9.10;;;;;;;;;;5135242;27;20476;-65
2021/11/22 09:34:00;;;;;;;68.70;9.75;;;;;;;;;;5135227;27;20448;-66
2021/11/22 09:36:27;;;;;;;66.63;9.50;;;;;;;;;;5134773;27;20674;-66
2021/11/22 09:38:55;;;;;;;69.00;9.40;;;;;;;;;;5135022;27;20305;-65
2021/11/22 09:41:26;;;;;;;68.47;9.93;;;;;;;;;;5135310;27;20475;-66
2021/11/22 09:43:54;;;;;;;69.75;10.98;;;;;;;;;;5135044;27;20449;-65
2021/11/22 09:46:24;;;;;;;67.67;10.03;;;;;;;;;;5134506;27;20703;-66
2021/11/22 09:48:51;;;;;;;68.10;9.83;;;;;;;;;;5135004;27;20452;-66
2021/11/22 09:51:18;;;;;;;67.17;9.10;;;;;;;;;;5135035;27;20473;-65
2021/11/22 09:53:46;;;;;;;64.30;7.53;;;;;;;;;;5135113;27;20827;-65
2021/11/22 09:56:13;;;;;;;70.07;9.70;;;;;;;;;;5132322;27;20895;-66
2021/11/22 09:58:40;;;;;;;65.77;8.10;;;;;;;;;;5134836;27;20447;-66
2021/11/22 10:01:13;;;;;;;68.23;9.13;;;;;;;;;;5134632;27;20461;-64
2021/11/22 10:03:41;;;;;;;65.50;8.10;;;;;;;;;;5134455;27;20446;-65
2021/11/22 10:06:08;;;;;;;65.60;8.23;;;;;;;;;;5134241;27;20493;-65
2021/11/22 10:08:39;;;;;;;71.27;8.20;;;;;;;;;;5133277;27;20451;-66
2021/11/22 10:11:08;;;;;;;66.33;8.40;;;;;;;;;;5134645;27;20546;-65
2021/11/22 10:13:36;;;;;;;66.87;8.70;;;;;;;;;;5134576;27;20469;-65
2021/11/22 10:16:20;;;;;;;64.37;8.67;;;;;;;;;;5134114;27;20529;-66
2021/11/22 10:18:50;;;;;;;70.60;9.93;;;;;;;;;;5133925;27;20448;-65
2021/11/22 10:21:18;;;;;;;65.23;8.50;;;;;;;;;;5133940;27;20467;-66
2021/11/22 10:23:46;;;;;;;73.40;9.03;;;;;;;;;;5134411;27;20472;-66
2021/11/22 10:26:15;;;;;;;70.13;8.80;;;;;;;;;;5134201;27;20474;-66
2021/11/22 10:28:44;;;;;;;73.43;9.63;;;;;;;;;;5134034;27;20302;-65
2021/11/22 10:31:12;;;;;;;65.97;9.00;;;;;;;;;;5134605;27;20477;-65
2021/11/22 10:33:40;;;;;;;69.83;9.00;;;;;;;;;;5134261;27;20442;-66
2021/11/22 10:36:10;;;;;;;67.33;7.87;;;;;;;;;;5133581;27;20446;-65
2021/11/22 10:38:38;;;;;;;67.50;8.27;;;;;;;;;;5134183;27;20539;-66
2021/11/22 10:41:06;;;;;;;66.10;9.00;;;;;;;;;;5132222;27;20789;-65
2021/11/22 10:43:35;;;;;;;67.40;9.17;;;;;;;;;;5134234;27;20451;-66
2021/11/22 10:46:05;;;;;;;65.67;7.77;;;;;;;;;;5133579;27;20482;-65
2021/11/22 10:48:32;;;;;;;71.00;8.60;;;;;;;;;;5133901;27;20455;-66
2021/11/22 10:51:12;;;;;;;66.70;7.93;;;;;;;;;;5133598;27;20447;-66
2021/11/22 10:53:40;;;;;;;64.80;7.20;;;;;;;;;;5133594;27;20469;-65
2021/11/22 10:56:09;;;;;;;65.37;8.27;;;;;;;;;;5133264;27;20947;-66
2021/11/22 10:58:42;;;;;;;63.57;7.30;;;;;;;;;;5133540;27;20438;-66
2021/11/22 11:01:32;;;;;;;66.10;7.67;;;;;;;;;;5133596;27;20477;-66
2021/11/22 11:04:01;;;;;;;64.07;7.97;;;;;;;;;;5118015;27;20464;-66
2021/11/22 11:06:36;;;;;;;62.23;6.77;;;;;;;;;;5132916;27;20487;-66
2021/11/22 11:09:04;;;;;;;64.57;7.70;;;;;;;;;;5133544;27;20830;-65
2021/11/22 11:11:31;;;;;;;67.10;6.60;;;;;;;;;;5133214;27;20468;-66
2021/11/22 11:14:03;;;;;;;64.50;7.20;;;;;;;;;;5131967;27;20795;-65
2021/11/22 11:16:30;;;;;;;65.87;8.13;;;;;;;;;;5133054;27;20445;-66
2021/11/22 11:18:58;;;;;;;64.10;7.80;;;;;;;;;;5133054;27;20464;-66
2021/11/22 11:21:29;;;;;;;63.53;7.30;;;;;;;;;;5133425;27;20466;-66
2021/11/22 11:23:59;;;;;;;64.20;7.60;;;;;;;;;;5133039;27;20974;-66
2021/11/22 11:26:26;;;;;;;66.07;6.70;;;;;;;;;;5132766;27;20483;-66
2021/11/22 11:28:54;;;;;;;62.30;6.93;;;;;;;;;;5133178;27;20988;-66
2021/11/22 11:31:21;;;;;;;64.37;6.37;;;;;;;;;;5132369;27;20474;-66
2021/11/22 11:33:49;;;;;;;65.20;7.80;;;;;;;;;;5133545;27;20451;-65
2021/11/22 11:36:21;;;;;;;64.20;7.37;;;;;;;;;;5132598;27;20448;-66
2021/11/22 11:38:54;;;;;;;70.87;7.53;;;;;;;;;;5133022;27;20447;-66
2021/11/22 11:41:30;;;;;;;65.00;6.90;;;;;;;;;;5132805;27;20993;-66
2021/11/22 11:44:06;;;;;;;64.83;6.93;;;;;;;;;;5132489;27;20499;-66
2021/11/22 11:46:47;;;;;;;69.63;8.00;;;;;;;;;;5130527;27;21307;-66
2021/11/22 11:49:14;;;;;;;64.47;6.80;;;;;;;;;;5132848;27;20214;-65
2021/11/22 11:51:42;;;;;;;61.63;6.50;;;;;;;;;;5132723;27;20472;-66
2021/11/22 11:54:11;;;;;;;65.87;6.80;;;;;;;;;;5132497;27;20520;-66
2021/11/22 11:56:42;;;;;;;70.03;7.90;;;;;;;;;;5132260;27;20444;-66
2021/11/22 11:59:13;;;;;;;65.07;7.63;;;;;;;;;;5132748;27;20822;-65
2021/11/22 12:01:55;;;;;;;62.87;6.90;;;;;;;;;;5132583;27;20476;-66
2021/11/22 12:04:22;;;;;;;65.07;6.97;;;;;;;;;;5132636;27;20938;-66
2021/11/22 12:06:51;;;;;;;61.67;6.23;;;;;;;;;;5132093;27;20492;-66
2021/11/22 12:09:38;;;;;;;61.87;6.33;;;;;;;;;;5132441;27;20451;-66
2021/11/22 12:12:33;;;;;;;63.37;7.10;;;;;;;;;;5132376;27;20484;-66
2021/11/22 12:15:02;;;;;;;61.77;6.27;;;;;;;;;;5132251;27;20449;-66
2021/11/22 12:17:47;;;;;;;64.20;7.63;;;;;;;;;;5132485;27;20938;-66
2021/11/22 12:20:35;;;;;;;68.75;7.68;;;;;;;;;;5123628;27;20459;-66
2021/11/22 12:23:03;;;;;;;63.03;6.27;;;;;;;;;;5111937;28;20607;-66
2021/11/22 12:25:42;;;;;;;62.50;7.07;;;;;;;;;;5111354;28;20466;-65
2021/11/22 12:28:15;;;;;;;68.67;7.70;;;;;;;;;;5118502;27;20538;-66
2021/11/22 12:30:42;;;;;;;62.57;7.30;;;;;;;;;;5132572;27;20449;-67
2021/11/22 12:33:28;;;;;;;63.17;6.80;;;;;;;;;;5132552;27;20862;-66
2021/11/22 12:35:57;;;;;;;63.67;7.07;;;;;;;;;;5132085;27;20447;-67
2021/11/22 12:38:26;;;;;;;63.10;7.30;;;;;;;;;;5132387;27;20546;-67
2021/11/22 12:40:54;;;;;;;61.67;5.70;;;;;;;;;;5132394;27;20455;-67
2021/11/22 12:43:36;;;;;;;62.20;6.50;;;;;;;;;;5134255;27;20446;-68
2021/11/22 12:46:05;;;;;;;65.10;6.90;;;;;;;;;;5135928;27;20578;-68
2021/11/22 12:48:32;;;;;;;62.10;6.40;;;;;;;;;;5136107;27;20450;-68
2021/11/22 12:51:00;;;;;;;67.63;6.87;;;;;;;;;;5136086;27;20824;-68
2021/11/22 12:53:27;;;;;;;64.10;5.67;;;;;;;;;;5134165;27;20936;-67
2021/11/22 12:55:56;;;;;;;65.20;6.30;;;;;;;;;;5135847;27;20450;-68
2021/11/22 12:58:24;;;;;;;63.00;7.30;;;;;;;;;;5135950;27;20450;-67
2021/11/22 13:00:52;;;;;;;64.23;6.40;;;;;;;;;;5135791;27;20473;-67
2021/11/22 13:03:22;;;;;;;61.67;6.50;;;;;;;;;;5135910;27;20886;-68
2021/11/22 13:05:59;;;;;;;61.87;5.90;;;;;;;;;;5135448;27;20494;-66
2021/11/22 13:08:43;;;;;;;61.73;6.17;;;;;;;;;;5135807;27;20485;-67
2021/11/22 13:11:15;;;;;;;66.93;9.20;;;;;;;;;;5137836;27;20463;-68
2021/11/22 13:13:46;;;;;;;65.07;7.70;;;;;;;;;;5137018;27;20458;-68
2021/11/22 13:16:14;;;;;;;63.33;6.97;;;;;;;;;;5136664;27;20447;-68
2021/11/22 13:18:48;;;;;;;63.73;6.70;;;;;;;;;;5136870;27;20876;-68
2021/11/22 13:21:16;;;;;;;64.20;6.37;;;;;;;;;;5137496;27;20498;-68
2021/11/22 13:23:44;;;;;;;63.50;6.63;;;;;;;;;;5135977;27;20503;-68
2021/11/22 13:26:12;;;;;;;62.20;5.73;;;;;;;;;;5135772;27;20442;-68
2021/11/22 13:28:46;;;;;;;63.03;6.40;;;;;;;;;;5136583;27;20457;-68
2021/11/22 13:31:13;;;;;;;64.77;6.30;;;;;;;;;;5136364;27;20475;-68
2021/11/22 13:33:40;;;;;;;61.67;5.50;;;;;;;;;;5136479;27;20443;-68
2021/11/22 13:36:09;;;;;;;64.05;6.32;;;;;;;;;;5136022;27;20556;-68
2021/11/22 13:38:40;;;;;;;60.93;5.97;;;;;;;;;;5136675;27;20211;-68
2021/11/22 13:41:12;;;;;;;62.30;6.70;;;;;;;;;;5136494;27;20466;-68
2021/11/22 13:43:39;;;;;;;65.77;6.40;;;;;;;;;;5136909;27;20552;-69
2021/11/22 13:46:07;;;;;;;63.73;6.77;;;;;;;;;;5135927;27;21002;-68
2021/11/22 13:48:51;;;;;;;61.22;5.68;;;;;;;;;;5136388;27;20490;-68
2021/11/22 13:51:22;;;;;;;65.77;6.70;;;;;;;;;;5136339;27;20289;-68
2021/11/22 13:53:49;;;;;;;61.83;6.37;;;;;;;;;;5135902;27;20935;-68
2021/11/22 13:56:28;;;;;;;62.85;5.70;;;;;;;;;;5135331;27;20447;-68
2021/11/22 13:58:55;;;;;;;61.17;5.97;;;;;;;;;;5136340;27;20291;-68
2021/11/22 14:01:23;;;;;;;69.30;6.30;;;;;;;;;;5135735;27;20481;-68
2021/11/22 14:03:51;;;;;;;62.97;6.57;;;;;;;;;;5136024;27;20454;-68
2021/11/22 14:06:20;;;;;;;62.00;5.60;;;;;;;;;;5135383;27;20820;-68
2021/11/22 14:08:47;;;;;;;67.87;5.90;;;;;;;;;;5135874;27;20450;-68
2021/11/22 14:11:22;;;;;;;62.27;5.77;;;;;;;;;;5135871;27;20475;-67
2021/11/22 14:13:49;;;;;;;63.27;6.33;;;;;;;;;;5135684;27;20451;-68
2021/11/22 14:16:17;;;;;;;61.40;5.67;;;;;;;;;;5135400;27;20451;-68
2021/11/22 14:18:45;;;;;;;62.40;6.03;;;;;;;;;;5135860;27;20451;-68
2021/11/22 14:21:12;;;;;;;63.03;5.93;;;;;;;;;;5135267;27;20554;-68
2021/11/22 14:23:41;;;;;;;61.60;5.67;;;;;;;;;;5135472;27;20452;-68
2021/11/22 14:26:09;;;;;;;61.60;5.73;;;;;;;;;;5135035;27;20473;-68
2021/11/22 14:28:40;;;;;;;63.73;5.40;;;;;;;;;;5135263;27;20479;-68
2021/11/22 14:31:07;;;;;;;61.60;6.00;;;;;;;;;;5135504;27;20509;-67